sensor_id;sensor_type;location;lat;lon;timestamp;P1;durP1;ratioP1;P2;durP2;ratioP2
64419;SDS011;50745;48.170;14.516;2023-01-01T00:06:45;8.88;;;7.28;;
64419;SDS011;50745;48.170;14.516;2023-01-01T00:16:47;8.65;;;6.85;;
64419;SDS011;50745;48.170;14.516;2023-01-01T00:26:49;9.75;;;7.65;;
64419;SDS011;50745;48.170;14.516;2023-01-01T00:36:50;10.02;;;7.32;;
64419;SDS011;50745;48.170;14.516;2023-01-01T00:46:52;11.23;;;8.77;;
64419;SDS011;50745;48.170;14.516;2023-01-01T00:56:54;12.27;;;9.15;;
64419;SDS011;50745;48.170;14.516;2023-01-01T01:06:57;14.00;;;10.85;;
64419;SDS011;50745;48.170;14.516;2023-01-01T01:16:59;13.15;;;10.35;;
64419;SDS011;50745;48.170;14.516;2023-01-01T01:37:16;14.95;;;12.15;;
64419;SDS011;50745;48.170;14.516;2023-01-01T01:47:51;13.68;;;10.85;;
64419;SDS011;50745;48.170;14.516;2023-01-01T01:57:54;13.13;;;10.70;;
64419;SDS011;50745;48.170;14.516;2023-01-01T02:07:55;13.90;;;11.02;;
64419;SDS011;50745;48.170;14.516;2023-01-01T02:38:22;13.75;;;10.93;;
64419;SDS011;50745;48.170;14.516;2023-01-01T03:19:06;12.80;;;9.75;;
64419;SDS011;50745;48.170;14.516;2023-01-01T03:29:12;12.85;;;10.63;;
64419;SDS011;50745;48.170;14.516;2023-01-01T03:39:16;13.25;;;10.77;;
64419;SDS011;50745;48.170;14.516;2023-01-01T03:49:19;12.00;;;9.40;;
64419;SDS011;50745;48.170;14.516;2023-01-01T03:59:22;11.63;;;8.98;;
64419;SDS011;50745;48.170;14.516;2023-01-01T04:09:27;12.57;;;9.30;;
64419;SDS011;50745;48.170;14.516;2023-01-01T04:19:30;12.48;;;9.02;;
64419;SDS011;50745;48.170;14.516;2023-01-01T04:29:33;12.20;;;9.25;;
64419;SDS011;50745;48.170;14.516;2023-01-01T04:39:34;11.13;;;8.75;;
64419;SDS011;50745;48.170;14.516;2023-01-01T04:49:36;11.02;;;7.90;;
64419;SDS011;50745;48.170;14.516;2023-01-01T04:59:38;10.77;;;7.93;;
64419;SDS011;50745;48.170;14.516;2023-01-01T05:09:40;11.55;;;8.80;;
64419;SDS011;50745;48.170;14.516;2023-01-01T05:19:42;9.77;;;7.55;;
64419;SDS011;50745;48.170;14.516;2023-01-01T05:29:43;9.15;;;7.28;;
64419;SDS011;50745;48.170;14.516;2023-01-01T05:39:45;10.30;;;7.47;;
64419;SDS011;50745;48.170;14.516;2023-01-01T05:49:47;8.77;;;7.00;;
64419;SDS011;50745;48.170;14.516;2023-01-01T05:59:49;10.18;;;7.72;;
64419;SDS011;50745;48.170;14.516;2023-01-01T06:09:52;10.70;;;8.45;;
64419;SDS011;50745;48.170;14.516;2023-01-01T06:19:53;9.68;;;7.45;;
64419;SDS011;50745;48.170;14.516;2023-01-01T06:29:55;10.88;;;7.47;;
64419;SDS011;50745;48.170;14.516;2023-01-01T06:40:00;9.07;;;7.40;;
64419;SDS011;50745;48.170;14.516;2023-01-01T06:50:02;9.15;;;7.32;;
64419;SDS011;50745;48.170;14.516;2023-01-01T07:00:04;10.07;;;7.28;;
64419;SDS011;50745;48.170;14.516;2023-01-01T07:10:06;8.98;;;6.97;;
64419;SDS011;50745;48.170;14.516;2023-01-01T07:20:08;10.23;;;7.22;;
64419;SDS011;50745;48.170;14.516;2023-01-01T07:30:13;8.77;;;6.70;;
64419;SDS011;50745;48.170;14.516;2023-01-01T07:40:18;8.23;;;6.37;;
64419;SDS011;50745;48.170;14.516;2023-01-01T07:50:20;8.82;;;5.95;;
64419;SDS011;50745;48.170;14.516;2023-01-01T08:00:22;7.75;;;6.07;;
64419;SDS011;50745;48.170;14.516;2023-01-01T08:10:23;7.30;;;5.57;;
64419;SDS011;50745;48.170;14.516;2023-01-01T08:20:28;6.77;;;5.57;;
64419;SDS011;50745;48.170;14.516;2023-01-01T08:30:30;7.88;;;6.47;;
64419;SDS011;50745;48.170;14.516;2023-01-01T08:40:39;8.80;;;6.38;;
64419;SDS011;50745;48.170;14.516;2023-01-01T08:50:40;7.63;;;5.82;;
64419;SDS011;50745;48.170;14.516;2023-01-01T09:00:41;8.27;;;6.18;;
64419;SDS011;50745;48.170;14.516;2023-01-01T09:10:43;9.40;;;6.05;;
64419;SDS011;50745;48.170;14.516;2023-01-01T09:20:44;7.90;;;5.95;;
64419;SDS011;50745;48.170;14.516;2023-01-01T09:30:46;7.18;;;5.95;;
64419;SDS011;50745;48.170;14.516;2023-01-01T09:40:52;8.00;;;5.97;;
64419;SDS011;50745;48.170;14.516;2023-01-01T09:50:58;7.50;;;6.07;;
64419;SDS011;50745;48.170;14.516;2023-01-01T10:01:11;8.13;;;6.10;;
64419;SDS011;50745;48.170;14.516;2023-01-01T10:21:31;7.72;;;5.80;;
64419;SDS011;50745;48.170;14.516;2023-01-01T10:31:35;8.27;;;5.85;;
64419;SDS011;50745;48.170;14.516;2023-01-01T10:41:36;8.50;;;6.07;;
64419;SDS011;50745;48.170;14.516;2023-01-01T10:51:41;7.10;;;5.78;;
64419;SDS011;50745;48.170;14.516;2023-01-01T11:01:43;7.93;;;6.07;;
64419;SDS011;50745;48.170;14.516;2023-01-01T11:11:46;8.52;;;6.18;;
64419;SDS011;50745;48.170;14.516;2023-01-01T11:21:48;7.55;;;5.90;;
64419;SDS011;50745;48.170;14.516;2023-01-01T11:31:49;7.57;;;5.82;;
64419;SDS011;50745;48.170;14.516;2023-01-01T11:41:52;7.63;;;5.97;;
64419;SDS011;50745;48.170;14.516;2023-01-01T11:51:54;7.28;;;5.72;;
64419;SDS011;50745;48.170;14.516;2023-01-01T12:02:00;8.40;;;5.82;;
64419;SDS011;50745;48.170;14.516;2023-01-01T12:12:03;7.82;;;5.78;;
64419;SDS011;50745;48.170;14.516;2023-01-01T12:22:07;7.05;;;5.75;;
64419;SDS011;50745;48.170;14.516;2023-01-01T12:32:24;7.50;;;6.15;;
64419;SDS011;50745;48.170;14.516;2023-01-01T12:42:39;7.15;;;5.45;;
64419;SDS011;50745;48.170;14.516;2023-01-01T12:52:48;7.00;;;5.28;;
64419;SDS011;50745;48.170;14.516;2023-01-01T13:02:57;7.65;;;5.72;;
64419;SDS011;50745;48.170;14.516;2023-01-01T13:13:00;7.03;;;5.40;;
64419;SDS011;50745;48.170;14.516;2023-01-01T13:23:01;7.47;;;5.82;;
64419;SDS011;50745;48.170;14.516;2023-01-01T13:33:17;7.93;;;5.75;;
64419;SDS011;50745;48.170;14.516;2023-01-01T13:43:25;7.53;;;5.55;;
64419;SDS011;50745;48.170;14.516;2023-01-01T14:03:33;8.30;;;5.90;;
64419;SDS011;50745;48.170;14.516;2023-01-01T14:13:38;7.45;;;5.53;;
64419;SDS011;50745;48.170;14.516;2023-01-01T14:23:42;7.63;;;5.85;;
64419;SDS011;50745;48.170;14.516;2023-01-01T14:33:44;6.93;;;5.40;;
64419;SDS011;50745;48.170;14.516;2023-01-01T14:43:46;7.93;;;5.75;;
64419;SDS011;50745;48.170;14.516;2023-01-01T14:53:48;8.88;;;6.03;;
64419;SDS011;50745;48.170;14.516;2023-01-01T15:03:54;8.13;;;5.85;;
64419;SDS011;50745;48.170;14.516;2023-01-01T15:24:02;7.35;;;5.50;;
64419;SDS011;50745;48.170;14.516;2023-01-01T15:34:04;9.00;;;5.28;;
64419;SDS011;50745;48.170;14.516;2023-01-01T15:44:07;7.57;;;5.55;;
64419;SDS011;50745;48.170;14.516;2023-01-01T15:54:12;7.38;;;5.53;;
64419;SDS011;50745;48.170;14.516;2023-01-01T16:04:19;7.30;;;5.70;;
64419;SDS011;50745;48.170;14.516;2023-01-01T16:14:22;8.55;;;5.65;;
64419;SDS011;50745;48.170;14.516;2023-01-01T16:24:23;7.20;;;5.40;;
64419;SDS011;50745;48.170;14.516;2023-01-01T16:34:24;7.13;;;5.28;;
64419;SDS011;50745;48.170;14.516;2023-01-01T16:44:25;7.07;;;5.32;;
64419;SDS011;50745;48.170;14.516;2023-01-01T16:54:27;8.35;;;5.32;;
64419;SDS011;50745;48.170;14.516;2023-01-01T17:04:29;8.23;;;5.22;;
64419;SDS011;50745;48.170;14.516;2023-01-01T17:14:31;7.93;;;5.60;;
64419;SDS011;50745;48.170;14.516;2023-01-01T17:24:32;7.50;;;5.22;;
64419;SDS011;50745;48.170;14.516;2023-01-01T17:34:33;7.15;;;5.20;;
64419;SDS011;50745;48.170;14.516;2023-01-01T17:44:35;8.27;;;5.50;;
64419;SDS011;50745;48.170;14.516;2023-01-01T17:54:36;8.40;;;5.57;;
64419;SDS011;50745;48.170;14.516;2023-01-01T18:04:38;9.05;;;5.28;;
64419;SDS011;50745;48.170;14.516;2023-01-01T18:14:39;7.47;;;4.53;;
64419;SDS011;50745;48.170;14.516;2023-01-01T18:24:41;6.68;;;5.10;;
64419;SDS011;50745;48.170;14.516;2023-01-01T18:34:42;6.78;;;4.80;;
64419;SDS011;50745;48.170;14.516;2023-01-01T18:44:44;6.45;;;4.40;;
64419;SDS011;50745;48.170;14.516;2023-01-01T18:54:45;5.50;;;4.20;;
64419;SDS011;50745;48.170;14.516;2023-01-01T19:04:47;5.28;;;3.90;;
64419;SDS011;50745;48.170;14.516;2023-01-01T19:14:49;7.35;;;5.18;;
64419;SDS011;50745;48.170;14.516;2023-01-01T19:24:50;6.15;;;4.72;;
64419;SDS011;50745;48.170;14.516;2023-01-01T19:34:51;7.32;;;5.43;;
64419;SDS011;50745;48.170;14.516;2023-01-01T19:44:53;7.18;;;4.95;;
64419;SDS011;50745;48.170;14.516;2023-01-01T19:54:54;7.10;;;4.88;;
64419;SDS011;50745;48.170;14.516;2023-01-01T20:04:55;6.70;;;4.90;;
64419;SDS011;50745;48.170;14.516;2023-01-01T20:14:57;7.47;;;5.35;;
64419;SDS011;50745;48.170;14.516;2023-01-01T20:24:58;7.43;;;5.65;;
64419;SDS011;50745;48.170;14.516;2023-01-01T20:34:59;8.88;;;6.80;;
64419;SDS011;50745;48.170;14.516;2023-01-01T20:45:04;8.32;;;6.03;;
64419;SDS011;50745;48.170;14.516;2023-01-01T20:55:06;9.40;;;6.60;;
64419;SDS011;50745;48.170;14.516;2023-01-01T21:05:07;10.30;;;7.53;;
64419;SDS011;50745;48.170;14.516;2023-01-01T21:15:17;9.60;;;7.20;;
64419;SDS011;50745;48.170;14.516;2023-01-01T21:25:23;9.57;;;7.22;;
64419;SDS011;50745;48.170;14.516;2023-01-01T21:35:30;9.30;;;7.13;;
64419;SDS011;50745;48.170;14.516;2023-01-01T21:45:36;9.20;;;7.40;;
64419;SDS011;50745;48.170;14.516;2023-01-01T21:55:37;9.18;;;6.82;;
64419;SDS011;50745;48.170;14.516;2023-01-01T22:05:55;8.32;;;6.10;;
64419;SDS011;50745;48.170;14.516;2023-01-01T22:15:56;9.48;;;6.85;;
64419;SDS011;50745;48.170;14.516;2023-01-01T22:25:57;8.32;;;6.63;;
64419;SDS011;50745;48.170;14.516;2023-01-01T22:35:59;9.30;;;6.97;;
64419;SDS011;50745;48.170;14.516;2023-01-01T22:46:03;9.00;;;6.80;;
64419;SDS011;50745;48.170;14.516;2023-01-01T22:56:09;8.00;;;6.25;;
64419;SDS011;50745;48.170;14.516;2023-01-01T23:06:10;8.93;;;6.18;;
64419;SDS011;50745;48.170;14.516;2023-01-01T23:16:12;7.30;;;6.05;;
64419;SDS011;50745;48.170;14.516;2023-01-01T23:26:13;7.78;;;6.10;;
64419;SDS011;50745;48.170;14.516;2023-01-01T23:36:14;8.07;;;6.35;;
64419;SDS011;50745;48.170;14.516;2023-01-01T23:46:15;7.50;;;5.90;;
64419;SDS011;50745;48.170;14.516;2023-01-01T23:56:18;7.80;;;5.78;;
